Time;durP1;ratioP1;P1;durP2;ratioP2;P2;SDS_P1;SDS_P2;PMS_P1;PMS_P2;Temp;Humidity;BMP_temperature;BMP_pressure;BME280_temperature;BME280_humidity;BME280_pressure;Samples;Min_cycle;Max_cycle;Signal;HPM_P1;HPM_P2
2022/10/07 00:04:30;;;;;;;;;;;;;;;;;;10460972;28;19925;-64
2022/10/07 00:09:32;;;;;;;;;;;;;;;;;;10459492;28;19979;-64
2022/10/07 00:14:34;;;;;;;;;;;;;;;;;;10459045;28;19925;-64
2022/10/07 00:19:36;;;;;;;;;;;;;;;;;;10456355;28;19925;-64
2022/10/07 00:24:38;;;;;;;;;;;;;;;;;;10460657;28;20396;-64
2022/10/07 00:29:40;;;;;;;;;;;;;;;;;;10458818;28;19971;-64
2022/10/07 00:34:42;;;;;;;;;;;;;;;;;;10458824;28;19990;-64
2022/10/07 00:39:44;;;;;;;;;;;;;;;;;;10460001;28;19956;-64
2022/10/07 00:44:47;;;;;;;;;;;;;;;;;;10458858;28;19924;-64
2022/10/07 00:49:49;;;;;;;;;;;;;;;;;;10457392;28;19925;-64
2022/10/07 00:54:52;;;;;;;;;;;;;;;;;;10459211;28;19932;-62
2022/10/07 00:59:54;;;;;;;;;;;;;;;;;;10458387;28;19979;-62
2022/10/07 01:04:57;;;;;;;;;;;;;;;;;;10459109;28;19924;-62
2022/10/07 01:09:59;;;;;;;;;;;;;;;;;;10453776;28;19924;-62
2022/10/07 01:15:02;;;;;;;;;;;;;;;;;;10458123;28;19971;-62
2022/10/07 01:20:04;;;;;;;;;;;;;;;;;;10458306;28;20371;-62
2022/10/07 01:25:06;;;;;;;;;;;;;;;;;;10457743;28;19925;-62
2022/10/07 01:30:08;;;;;;;;;;;;;;;;;;10433936;28;19925;-62
2022/10/07 01:35:10;;;;;;;;;;;;;;;;;;10450691;28;20339;-61
2022/10/07 01:40:12;;;;;;;;;;;;;;;;;;10456064;28;19983;-61
2022/10/07 01:45:15;;;;;;;;;;;;;;;;;;10458172;28;20043;-61
2022/10/07 01:50:17;;;;;;;;;;;;;;;;;;10452815;28;19986;-62
2022/10/07 01:55:19;;;;;;;;;;;;;;;;;;10455028;28;19928;-61
2022/10/07 02:00:23;;;;;;;;;;;;;;;;;;10457095;28;19925;-64
2022/10/07 02:05:26;;;;;;;;;;;;;;;;;;10455534;28;19978;-64
2022/10/07 02:10:28;;;;;;;;;;;;;;;;;;10457466;28;19925;-62
2022/10/07 02:15:30;;;;;;;;;;;;;;;;;;10455562;28;19948;-61
2022/10/07 02:20:32;;;;;;;;;;;;;;;;;;10456217;28;19929;-61
2022/10/07 02:25:34;;;;;;;;;;;;;;;;;;10455724;28;19940;-61
2022/10/07 02:30:36;;;;;;;;;;;;;;;;;;10454151;28;19955;-61
2022/10/07 02:35:38;;;;;;;;;;;;;;;;;;10452652;28;19924;-61
2022/10/07 02:40:40;;;;;;;;;;;;;;;;;;10456923;28;19925;-61
2022/10/07 02:45:42;;;;;;;;;;;;;;;;;;10456724;28;19929;-61
2022/10/07 02:50:44;;;;;;;;;;;;;;;;;;10453574;28;19924;-61
2022/10/07 02:55:46;;;;;;;;;;;;;;;;;;10463251;28;19932;-61
2022/10/07 03:00:50;;;;;;;;;;;;;;;;;;10462535;28;19924;-61
2022/10/07 03:05:52;;;;;;;;;;;;;;;;;;10460669;28;20156;-64
2022/10/07 03:10:54;;;;;;;;;;;;;;;;;;10463455;28;19925;-64
2022/10/07 03:15:56;;;;;;;;;;;;;;;;;;10461646;28;20334;-64
2022/10/07 03:21:01;;;;;;;;;;;;;;;;;;10443100;28;20296;-64
2022/10/07 03:26:03;;;;;;;;;;;;;;;;;;10461461;28;19971;-61
2022/10/07 03:31:05;;;;;;;;;;;;;;;;;;10459589;28;19924;-64
2022/10/07 03:36:07;;;;;;;;;;;;;;;;;;10460987;28;19925;-64
2022/10/07 03:41:09;;;;;;;;;;;;;;;;;;10462931;28;19924;-64
2022/10/07 03:46:11;;;;;;;;;;;;;;;;;;10460615;28;19936;-64
2022/10/07 03:51:14;;;;;;;;;;;;;;;;;;10460883;28;20375;-64
2022/10/07 03:56:16;;;;;;;;;;;;;;;;;;10461313;28;19944;-64
2022/10/07 04:01:18;;;;;;;;;;;;;;;;;;10459924;28;19924;-64
2022/10/07 04:06:20;;;;;;;;;;;;;;;;;;10458238;28;19933;-64
2022/10/07 04:11:23;;;;;;;;;;;;;;;;;;10454976;28;19974;-64
2022/10/07 04:16:25;;;;;;;;;;;;;;;;;;10458323;28;20372;-64
2022/10/07 04:21:27;;;;;;;;;;;;;;;;;;10456500;28;20024;-64
2022/10/07 04:26:29;;;;;;;;;;;;;;;;;;10458105;28;20425;-64
2022/10/07 04:31:31;;;;;;;;;;;;;;;;;;10456159;28;19978;-64
2022/10/07 04:36:33;;;;;;;;;;;;;;;;;;10457765;28;19925;-64
2022/10/07 04:41:35;;;;;;;;;;;;;;;;;;10451112;28;19929;-64
2022/10/07 04:46:39;;;;;;;;;;;;;;;;;;10456362;28;20272;-64
2022/10/07 04:51:41;;;;;;;;;;;;;;;;;;10460185;28;19931;-64
2022/10/07 04:56:43;;;;;;;;;;;;;;;;;;10459789;28;19951;-64
2022/10/07 05:01:45;;;;;;;;;;;;;;;;;;10458198;28;19927;-64
2022/10/07 05:06:47;;;;;;;;;;;;;;;;;;10459673;28;19931;-64
2022/10/07 05:11:49;;;;;;;;;;;;;;;;;;10450717;28;19924;-61
2022/10/07 05:16:52;;;;;;;;;;;;;;;;;;10456040;28;19931;-64
2022/10/07 05:21:54;;;;;;;;;;;;;;;;;;10459090;28;19925;-64
2022/10/07 05:26:56;;;;;;;;;;;;;;;;;;10458272;28;19929;-64
2022/10/07 05:31:58;;;;;;;;;;;;;;;;;;10441078;28;19928;-64
2022/10/07 05:37:05;;;;;;;;;;;;;;;;;;10458457;28;19925;-64
2022/10/07 05:42:08;;;;;;;;;;;;;;;;;;10457704;28;19971;-64
2022/10/07 05:47:10;;;;;;;;;;;;;;;;;;10458215;28;19971;-64
2022/10/07 05:52:12;;;;;;;;;;;;;;;;;;10457998;28;19936;-64
2022/10/07 05:57:14;;;;;;;;;;;;;;;;;;10457730;28;19925;-64
2022/10/07 06:02:17;;;;;;;;;;;;;;;;;;10457095;28;20299;-64
2022/10/07 06:07:19;;;;;;;;;;;;;;;;;;10457544;28;19991;-64
2022/10/07 06:17:45;;;;;;;;;;;;;;;;;;10456789;28;19928;-63
2022/10/07 06:22:47;;;;;;;;;;;;;;;;;;10456543;28;20360;-64
2022/10/07 06:27:49;;;;;;;;;;;;;;;;;;10459746;28;20411;-64
2022/10/07 06:32:56;;;;;;;;;;;;;;;;;;10465683;28;19925;-64
2022/10/07 06:37:58;;;;;;;;;;;;;;;;;;10465416;28;19925;-64
2022/10/07 06:43:00;;;;;;;;;;;;;;;;;;10465156;28;19925;-64
2022/10/07 06:48:02;;;;;;;;;;;;;;;;;;10464952;28;19929;-64
2022/10/07 06:53:04;;;;;;;;;;;;;;;;;;10464917;28;19925;-64
2022/10/07 06:58:06;;;;;;;;;;;;;;;;;;10464010;28;20376;-64
2022/10/07 07:03:12;;;;;;;;;;;;;;;;;;10463920;28;19976;-64
2022/10/07 07:08:17;;;;;;;;;;;;;;;;;;10464305;28;19925;-64
2022/10/07 07:13:19;;;;;;;;;;;;;;;;;;10464123;28;19929;-64
2022/10/07 07:18:21;;;;;;;;;;;;;;;;;;10463037;28;19975;-64
2022/10/07 07:23:25;;;;;;;;;;;;;;;;;;10463579;28;20296;-62
2022/10/07 07:28:27;;;;;;;;;;;;;;;;;;10463539;28;19925;-62
2022/10/07 07:33:29;;;;;;;;;;;;;;;;;;10524233;23;19931;-61
2022/10/07 07:38:31;;;;;;;;;;;;;;;;;;10545718;28;20366;-61
2022/10/07 07:43:33;;;;;;;;;;;;;;;;;;10546245;28;19981;-61
2022/10/07 07:48:36;;;;;;;;;;;;;;;;;;10545307;28;20423;-60
2022/10/07 07:53:38;;;;;;;;;;;;;;;;;;10545276;28;19928;-60
2022/10/07 07:58:40;;;;;;;;;;;;;;;;;;10545576;28;19981;-61
2022/10/07 08:03:43;;;;;;;;;;;;;;;;;;10544823;28;19928;-61
2022/10/07 08:08:45;;;;;;;;;;;;;;;;;;10544675;28;20367;-61
2022/10/07 08:13:47;;;;;;;;;;;;;;;;;;10544600;28;19924;-61
2022/10/07 08:18:49;;;;;;;;;;;;;;;;;;10544177;28;19970;-61
2022/10/07 08:23:51;;;;;;;;;;;;;;;;;;10544701;28;19924;-61
2022/10/07 08:28:53;;;;;;;;;;;;;;;;;;10543856;28;20336;-61
2022/10/07 08:33:55;;;;;;;;;;;;;;;;;;10543422;28;19978;-62
2022/10/07 08:38:57;;;;;;;;;;;;;;;;;;10543824;28;19973;-61
2022/10/07 08:44:01;;;;;;;;;;;;;;;;;;10543874;28;19934;-61
2022/10/07 08:49:05;;;;;;;;;;;;;;;;;;10543002;28;19939;-61
2022/10/07 08:54:07;;;;;;;;;;;;;;;;;;10543221;28;19931;-61
2022/10/07 08:59:09;;;;;;;;;;;;;;;;;;10542912;28;19986;-61
2022/10/07 09:04:11;;;;;;;;;;;;;;;;;;10524328;28;19924;-62
2022/10/07 09:09:13;;;;;;;;;;;;;;;;;;10542143;28;19928;-62
2022/10/07 09:14:15;;;;;;;;;;;;;;;;;;10542684;28;19977;-61
2022/10/07 09:19:17;;;;;;;;;;;;;;;;;;10541712;28;19993;-61
2022/10/07 09:24:19;;;;;;;;;;;;;;;;;;10542328;28;19977;-62
2022/10/07 09:29:21;;;;;;;;;;;;;;;;;;10541534;28;19924;-62
2022/10/07 09:34:23;;;;;;;;;;;;;;;;;;10541179;28;19928;-62
2022/10/07 09:39:26;;;;;;;;;;;;;;;;;;10541204;28;19928;-62
2022/10/07 09:44:28;;;;;;;;;;;;;;;;;;10540944;28;20276;-62
2022/10/07 09:49:31;;;;;;;;;;;;;;;;;;10540811;28;20271;-62
2022/10/07 09:54:33;;;;;;;;;;;;;;;;;;10541123;28;20077;-62
2022/10/07 09:59:35;;;;;;;;;;;;;;;;;;10540219;28;19978;-62
2022/10/07 10:04:37;;;;;;;;;;;;;;;;;;10539332;28;19931;-62
2022/10/07 10:09:39;;;;;;;;;;;;;;;;;;10540773;28;19924;-62
2022/10/07 10:14:41;;;;;;;;;;;;;;;;;;10540981;28;19924;-62
2022/10/07 10:19:43;;;;;;;;;;;;;;;;;;10540408;28;19977;-63
2022/10/07 10:30:06;;;;;;;;;;;;;;;;;;10540783;28;19973;-63
2022/10/07 10:35:08;;;;;;;;;;;;;;;;;;10539395;28;19924;-62
2022/10/07 10:40:10;;;;;;;;;;;;;;;;;;10539500;28;20448;-62
2022/10/07 10:45:12;;;;;;;;;;;;;;;;;;10540100;28;19924;-62
2022/10/07 10:50:14;;;;;;;;;;;;;;;;;;10539818;28;19924;-62
2022/10/07 10:55:17;;;;;;;;;;;;;;;;;;10539219;28;19924;-62
2022/10/07 11:00:19;;;;;;;;;;;;;;;;;;10539067;28;20287;-62
2022/10/07 11:05:21;;;;;;;;;;;;;;;;;;10539608;28;19924;-63
2022/10/07 11:10:23;;;;;;;;;;;;;;;;;;10538943;28;20416;-63
2022/10/07 11:15:25;;;;;;;;;;;;;;;;;;10544836;28;19928;-63
2022/10/07 11:20:27;;;;;;;;;;;;;;;;;;10547127;28;19970;-63
2022/10/07 11:25:29;;;;;;;;;;;;;;;;;;10546948;28;19924;-63
2022/10/07 11:30:31;;;;;;;;;;;;;;;;;;10546053;28;19924;-62
2022/10/07 11:35:33;;;;;;;;;;;;;;;;;;10546119;28;19932;-61
2022/10/07 11:40:35;;;;;;;;;;;;;;;;;;10546321;28;19928;-63
2022/10/07 11:45:37;;;;;;;;;;;;;;;;;;10545917;28;19924;-63
2022/10/07 11:50:40;;;;;;;;;;;;;;;;;;10545968;28;19928;-63
2022/10/07 11:55:42;;;;;;;;;;;;;;;;;;10545102;28;20337;-63
2022/10/07 12:00:44;;;;;;;;;;;;;;;;;;10545306;28;19928;-62
2022/10/07 12:05:46;;;;;;;;;;;;;;;;;;10545262;28;19924;-62
2022/10/07 12:10:48;;;;;;;;;;;;;;;;;;10545145;28;19928;-63
2022/10/07 12:15:50;;;;;;;;;;;;;;;;;;10544405;28;20359;-63
2022/10/07 12:20:52;;;;;;;;;;;;;;;;;;10544115;28;20326;-63
2022/10/07 12:25:54;;;;;;;;;;;;;;;;;;10543078;28;20429;-63
2022/10/07 12:30:56;;;;;;;;;;;;;;;;;;10544021;28;19978;-63
2022/10/07 12:35:58;;;;;;;;;;;;;;;;;;10544144;28;19924;-61
2022/10/07 12:41:00;;;;;;;;;;;;;;;;;;10543266;28;20338;-62
2022/10/07 12:46:02;;;;;;;;;;;;;;;;;;10543740;28;19928;-63
2022/10/07 12:51:05;;;;;;;;;;;;;;;;;;10543577;28;19932;-62
2022/10/07 12:56:07;;;;;;;;;;;;;;;;;;10542782;28;19924;-62
2022/10/07 13:01:10;;;;;;;;;;;;;;;;;;10543011;28;19970;-63
2022/10/07 13:06:12;;;;;;;;;;;;;;;;;;10542556;28;19924;-63
2022/10/07 13:11:14;;;;;;;;;;;;;;;;;;10542761;28;19945;-62
2022/10/07 13:16:16;;;;;;;;;;;;;;;;;;10541970;28;20391;-63
2022/10/07 13:21:18;;;;;;;;;;;;;;;;;;10542356;28;19935;-63
2022/10/07 13:26:21;;;;;;;;;;;;;;;;;;10542196;28;19924;-62
2022/10/07 13:31:23;;;;;;;;;;;;;;;;;;10541230;28;20321;-63
2022/10/07 13:36:26;;;;;;;;;;;;;;;;;;10541753;28;19928;-63
2022/10/07 13:41:28;;;;;;;;;;;;;;;;;;10541635;28;19974;-62
2022/10/07 13:46:30;;;;;;;;;;;;;;;;;;10540843;28;20390;-62
2022/10/07 13:51:32;;;;;;;;;;;;;;;;;;10540722;28;19924;-62
2022/10/07 13:56:35;;;;;;;;;;;;;;;;;;10541179;28;19928;-63
2022/10/07 14:01:37;;;;;;;;;;;;;;;;;;10540414;28;19931;-63
2022/10/07 14:06:39;;;;;;;;;;;;;;;;;;10540931;28;20018;-63
2022/10/07 14:11:42;;;;;;;;;;;;;;;;;;10540733;28;19924;-62
2022/10/07 14:16:44;;;;;;;;;;;;;;;;;;10539904;28;19924;-62
2022/10/07 14:21:46;;;;;;;;;;;;;;;;;;10540591;28;20003;-63
2022/10/07 14:26:48;;;;;;;;;;;;;;;;;;10539822;28;19970;-62
2022/10/07 14:37:12;;;;;;;;;;;;;;;;;;10540138;28;19924;-62
2022/10/07 14:42:14;;;;;;;;;;;;;;;;;;10521651;28;20000;-62
2022/10/07 14:47:19;;;;;;;;;;;;;;;;;;10540533;28;19924;-62
2022/10/07 14:52:22;;;;;;;;;;;;;;;;;;10547636;28;19928;-62
2022/10/07 14:57:24;;;;;;;;;;;;;;;;;;10548037;28;19931;-62
2022/10/07 15:02:26;;;;;;;;;;;;;;;;;;10547981;28;19924;-62
2022/10/07 15:07:29;;;;;;;;;;;;;;;;;;10547225;28;19924;-62
2022/10/07 15:12:32;;;;;;;;;;;;;;;;;;10548057;28;19925;-62
2022/10/07 15:17:34;;;;;;;;;;;;;;;;;;10547387;28;19986;-62
2022/10/07 15:22:36;;;;;;;;;;;;;;;;;;10547144;28;19924;-62
2022/10/07 15:27:39;;;;;;;;;;;;;;;;;;10546871;28;19924;-62
2022/10/07 15:32:41;;;;;;;;;;;;;;;;;;10546226;28;19928;-63
2022/10/07 15:37:44;;;;;;;;;;;;;;;;;;10545978;28;20279;-62
2022/10/07 15:42:46;;;;;;;;;;;;;;;;;;10546449;28;20007;-62
2022/10/07 15:47:50;;;;;;;;;;;;;;;;;;10546217;28;19950;-62
2022/10/07 15:52:53;;;;;;;;;;;;;;;;;;10546250;28;19924;-62
2022/10/07 15:57:55;;;;;;;;;;;;;;;;;;10545120;28;19935;-62
2022/10/07 16:03:00;;;;;;;;;;;;;;;;;;10543669;28;19924;-62
2022/10/07 16:08:02;;;;;;;;;;;;;;;;;;10545643;28;19924;-62
2022/10/07 16:13:04;;;;;;;;;;;;;;;;;;10544613;28;20371;-62
2022/10/07 16:18:06;;;;;;;;;;;;;;;;;;10544959;28;19924;-62
2022/10/07 16:23:08;;;;;;;;;;;;;;;;;;10544849;28;19970;-62
2022/10/07 16:33:31;;;;;;;;;;;;;;;;;;10543633;28;20371;-61
2022/10/07 16:38:33;;;;;;;;;;;;;;;;;;10543534;28;19997;-62
2022/10/07 16:43:35;;;;;;;;;;;;;;;;;;10543371;28;19928;-62
2022/10/07 16:48:37;;;;;;;;;;;;;;;;;;10543750;28;19924;-62
2022/10/07 16:53:39;;;;;;;;;;;;;;;;;;10543046;28;20440;-62
2022/10/07 16:58:41;;;;;;;;;;;;;;;;;;10543388;28;19927;-62
2022/10/07 17:03:45;;;;;;;;;;;;;;;;;;10542566;28;20371;-62
2022/10/07 17:08:47;;;;;;;;;;;;;;;;;;10542396;28;20358;-62
2022/10/07 17:13:49;;;;;;;;;;;;;;;;;;10542416;28;19925;-62
2022/10/07 17:18:51;;;;;;;;;;;;;;;;;;10542535;28;19928;-62
2022/10/07 17:23:57;;;;;;;;;;;;;;;;;;10541082;28;19924;-62
2022/10/07 17:28:59;;;;;;;;;;;;;;;;;;10542210;28;19931;-62
2022/10/07 17:34:02;;;;;;;;;;;;;;;;;;10541220;28;19950;-62
2022/10/07 17:39:04;;;;;;;;;;;;;;;;;;10542944;28;19924;-62
2022/10/07 17:44:09;;;;;;;;;;;;;;;;;;10541378;28;20009;-61
2022/10/07 17:49:15;;;;;;;;;;;;;;;;;;10557135;28;19977;-62
2022/10/07 17:54:17;;;;;;;;;;;;;;;;;;10552510;28;19924;-61
2022/10/07 17:59:21;;;;;;;;;;;;;;;;;;10550915;28;20423;-61
2022/10/07 18:04:23;;;;;;;;;;;;;;;;;;10540276;28;19950;-62
2022/10/07 18:09:26;;;;;;;;;;;;;;;;;;10567484;28;19924;-62
2022/10/07 18:19:54;;;;;;;;;;;;;;;;;;10582088;28;20340;-62
2022/10/07 18:24:57;;;;;;;;;;;;;;;;;;10581226;28;19932;-61
2022/10/07 18:30:00;;;;;;;;;;;;;;;;;;10582546;28;19924;-61
2022/10/07 18:35:02;;;;;;;;;;;;;;;;;;10581596;28;19969;-61
2022/10/07 18:40:04;;;;;;;;;;;;;;;;;;10582245;28;19928;-61
2022/10/07 18:45:06;;;;;;;;;;;;;;;;;;10541899;28;20394;-61
2022/10/07 18:50:08;;;;;;;;;;;;;;;;;;10539952;28;19977;-61
2022/10/07 18:55:10;;;;;;;;;;;;;;;;;;10539178;28;19992;-60
2022/10/07 19:00:12;;;;;;;;;;;;;;;;;;10539883;28;19925;-61
2022/10/07 19:05:14;;;;;;;;;;;;;;;;;;10540918;28;19924;-60
2022/10/07 19:10:16;;;;;;;;;;;;;;;;;;10539688;28;19924;-61
2022/10/07 19:15:18;;;;;;;;;;;;;;;;;;10540407;28;20333;-61
2022/10/07 19:20:20;;;;;;;;;;;;;;;;;;10539455;28;19924;-61
2022/10/07 19:30:44;;;;;;;;;;;;;;;;;;10547276;28;19969;-61
2022/10/07 19:35:46;;;;;;;;;;;;;;;;;;10547578;28;19928;-61
2022/10/07 19:40:48;;;;;;;;;;;;;;;;;;10544650;28;19977;-61
2022/10/07 19:45:50;;;;;;;;;;;;;;;;;;10537267;22;19928;-62
2022/10/07 19:50:52;;;;;;;;;;;;;;;;;;10550344;28;19931;-62
2022/10/07 19:55:54;;;;;;;;;;;;;;;;;;10546301;28;19924;-62
2022/10/07 20:00:56;;;;;;;;;;;;;;;;;;10587319;28;20419;-62
2022/10/07 20:06:03;;;;;;;;;;;;;;;;;;10585497;28;19924;-62
2022/10/07 20:11:05;;;;;;;;;;;;;;;;;;10583777;28;19924;-62
2022/10/07 20:16:08;;;;;;;;;;;;;;;;;;10583147;28;19924;-62
2022/10/07 20:21:11;;;;;;;;;;;;;;;;;;10550425;28;20393;-62
2022/10/07 20:26:15;;;;;;;;;;;;;;;;;;10580205;28;19924;-62
2022/10/07 20:31:17;;;;;;;;;;;;;;;;;;10584362;28;19975;-62
2022/10/07 20:36:19;;;;;;;;;;;;;;;;;;10586622;28;19978;-62
2022/10/07 20:46:42;;;;;;;;;;;;;;;;;;10585123;28;19924;-62
2022/10/07 20:51:44;;;;;;;;;;;;;;;;;;10585126;28;19930;-62
2022/10/07 20:56:47;;;;;;;;;;;;;;;;;;10585781;28;19928;-62
2022/10/07 21:01:49;;;;;;;;;;;;;;;;;;10562158;28;19973;-62
2022/10/07 21:06:52;;;;;;;;;;;;;;;;;;10575269;28;19923;-62
2022/10/07 21:11:56;;;;;;;;;;;;;;;;;;10584721;28;20371;-62
2022/10/07 21:17:00;;;;;;;;;;;;;;;;;;10584925;28;19923;-62
2022/10/07 21:22:02;;;;;;;;;;;;;;;;;;10582267;28;19925;-62
2022/10/07 21:27:04;;;;;;;;;;;;;;;;;;10582070;28;19945;-62
2022/10/07 21:32:06;;;;;;;;;;;;;;;;;;10582830;28;19924;-62
2022/10/07 21:37:08;;;;;;;;;;;;;;;;;;10583567;28;19996;-62
2022/10/07 21:42:10;;;;;;;;;;;;;;;;;;10581503;28;19932;-62
2022/10/07 21:47:12;;;;;;;;;;;;;;;;;;10582056;28;19923;-63
2022/10/07 21:52:14;;;;;;;;;;;;;;;;;;10583631;28;19972;-62
2022/10/07 21:57:17;;;;;;;;;;;;;;;;;;10581096;28;20147;-62
2022/10/07 22:02:19;;;;;;;;;;;;;;;;;;10580871;28;19971;-62
2022/10/07 22:12:42;;;;;;;;;;;;;;;;;;10581224;28;19978;-62
2022/10/07 22:17:44;;;;;;;;;;;;;;;;;;10580384;28;19924;-62
2022/10/07 22:22:48;;;;;;;;;;;;;;;;;;10579853;28;19982;-62
2022/10/07 22:27:50;;;;;;;;;;;;;;;;;;10580519;28;20363;-62
2022/10/07 22:32:52;;;;;;;;;;;;;;;;;;10582630;28;19924;-62
2022/10/07 22:37:54;;;;;;;;;;;;;;;;;;10580456;28;19924;-62
2022/10/07 22:42:57;;;;;;;;;;;;;;;;;;10579371;28;19931;-62
2022/10/07 22:47:59;;;;;;;;;;;;;;;;;;10581569;28;20268;-62
2022/10/07 22:53:01;;;;;;;;;;;;;;;;;;10581526;28;20394;-62
2022/10/07 22:58:03;;;;;;;;;;;;;;;;;;10578372;28;19924;-62
2022/10/07 23:03:07;;;;;;;;;;;;;;;;;;10579729;28;19924;-62
2022/10/07 23:08:09;;;;;;;;;;;;;;;;;;10580452;28;19985;-62
2022/10/07 23:13:11;;;;;;;;;;;;;;;;;;10589991;28;19924;-62
2022/10/07 23:18:13;;;;;;;;;;;;;;;;;;10588534;28;19924;-62
2022/10/07 23:23:15;;;;;;;;;;;;;;;;;;10584592;28;19949;-62
2022/10/07 23:28:18;;;;;;;;;;;;;;;;;;10583622;28;20367;-61
2022/10/07 23:33:20;;;;;;;;;;;;;;;;;;10589296;28;19970;-62
2022/10/07 23:38:25;;;;;;;;;;;;;;;;;;10586990;28;20278;-62
2022/10/07 23:43:27;;;;;;;;;;;;;;;;;;10586430;28;19932;-62
2022/10/07 23:48:38;;;;;;;;;;;;;;;;;;10587696;28;19954;-61
2022/10/07 23:53:40;;;;;;;;;;;;;;;;;;10584651;28;19924;-62
2022/10/07 23:58:42;;;;;;;;;;;;;;;;;;10586164;28;20439;-62
